createdAt,value
2023-05-02T00:00:10.884Z,9.5096
2023-05-02T00:01:12.871Z,9.5000
2023-05-02T00:02:15.022Z,9.4981
2023-05-02T00:03:17.503Z,9.4634
2023-05-02T00:04:19.790Z,9.4628
2023-05-02T00:05:22.228Z,9.4507
2023-05-02T00:06:24.284Z,9.4815
2023-05-02T00:07:26.283Z,9.4752
2023-05-02T00:08:28.319Z,9.4778
2023-05-02T00:09:30.349Z,9.4428
2023-05-02T00:10:32.357Z,9.4320
2023-05-02T00:11:34.395Z,9.4758
2023-05-02T00:12:36.425Z,9.4320
2023-05-02T00:13:38.468Z,9.4182
2023-05-02T00:14:40.477Z,9.4061
2023-05-02T00:15:42.480Z,9.3875
2023-05-02T00:16:44.518Z,9.4252
2023-05-02T00:17:46.535Z,9.3995
2023-05-02T00:18:48.537Z,9.3907
2023-05-02T00:19:50.587Z,9.3828
2023-05-02T00:20:52.608Z,9.3621
2023-05-02T00:21:54.631Z,9.3479
2023-05-02T00:22:56.681Z,9.3516
2023-05-02T00:23:58.707Z,9.3487
2023-05-02T00:25:00.755Z,9.3465
2023-05-02T00:26:02.793Z,9.3369
2023-05-02T00:27:04.829Z,9.3297
2023-05-02T00:28:06.869Z,9.3299
2023-05-02T00:29:08.906Z,9.3421
2023-05-02T00:30:11.710Z,9.3338
2023-05-02T00:31:13.805Z,9.3280
2023-05-02T00:32:15.787Z,9.3230
2023-05-02T00:33:17.841Z,9.3004
2023-05-02T00:34:19.854Z,9.3205
2023-05-02T00:35:21.875Z,9.3203
2023-05-02T00:36:23.895Z,9.3194
2023-05-02T00:37:25.912Z,9.2967
2023-05-02T00:38:27.987Z,9.2928
2023-05-02T00:39:30.048Z,9.2980
2023-05-02T00:40:32.092Z,9.2857
2023-05-02T00:41:34.126Z,9.2988
2023-05-02T00:42:36.456Z,9.2636
2023-05-02T00:43:38.650Z,9.2394
2023-05-02T00:44:40.710Z,9.2251
2023-05-02T00:45:42.763Z,9.2264
2023-05-02T00:46:44.841Z,9.2328
2023-05-02T00:47:46.889Z,9.2499
2023-05-02T00:48:48.933Z,9.2320
2023-05-02T00:49:50.956Z,9.2290
2023-05-02T00:50:52.978Z,9.2163
2023-05-02T00:51:55.052Z,9.2433
2023-05-02T00:52:57.045Z,9.2199
2023-05-02T00:53:59.063Z,9.2327
2023-05-02T00:55:01.099Z,9.2358
2023-05-02T00:56:03.132Z,9.2091
2023-05-02T00:57:05.183Z,9.1824
2023-05-02T00:58:07.231Z,9.1906
2023-05-02T00:59:09.267Z,9.1769
2023-05-02T01:00:11.350Z,9.1836
2023-05-02T01:01:13.413Z,9.1701
2023-05-02T01:02:15.472Z,9.1780
2023-05-02T01:03:17.721Z,9.1547
2023-05-02T01:04:19.875Z,9.1269
2023-05-02T01:05:21.887Z,9.1232
2023-05-02T01:06:23.940Z,9.1169
2023-05-02T01:07:25.954Z,9.1196
2023-05-02T01:08:27.976Z,9.0957
2023-05-02T01:09:30.000Z,9.0723
2023-05-02T01:10:32.050Z,9.0668
2023-05-02T01:11:34.087Z,9.0475
2023-05-02T01:12:36.122Z,9.0534
2023-05-02T01:13:38.181Z,9.0625
2023-05-02T01:14:40.278Z,9.0427
2023-05-02T01:15:42.390Z,9.0797
2023-05-02T01:16:44.656Z,9.0677
2023-05-02T01:17:46.913Z,9.0206
2023-05-02T01:18:48.964Z,8.9973
2023-05-02T01:19:51.090Z,8.9798
2023-05-02T01:20:53.136Z,8.9432
2023-05-02T01:21:55.114Z,8.9106
2023-05-02T01:22:57.155Z,8.9020
2023-05-02T01:23:59.187Z,8.9166
2023-05-02T01:25:01.555Z,8.9097
2023-05-02T01:26:03.583Z,8.9598
2023-05-02T01:27:05.635Z,8.9141
2023-05-02T01:28:07.697Z,8.9177
2023-05-02T01:29:09.746Z,8.8800
2023-05-02T01:30:11.761Z,8.8747
2023-05-02T01:31:13.807Z,8.8715
2023-05-02T01:32:15.820Z,8.9564
2023-05-02T01:33:17.879Z,8.9783
2023-05-02T01:34:19.927Z,8.9309
2023-05-02T01:35:21.975Z,8.8665
2023-05-02T01:36:23.982Z,8.8717
2023-05-02T01:37:26.002Z,8.8978
2023-05-02T01:38:28.010Z,8.8830
2023-05-02T01:39:30.053Z,8.8602
2023-05-02T01:40:32.126Z,8.8546
2023-05-02T01:41:34.167Z,8.8770
2023-05-02T01:42:36.910Z,8.8937
2023-05-02T01:43:38.972Z,8.9187
2023-05-02T01:44:40.994Z,8.9262
2023-05-02T01:45:43.001Z,8.9620
2023-05-02T01:46:45.060Z,8.9592
2023-05-02T01:47:47.140Z,8.9923
2023-05-02T01:48:49.143Z,9.0033
2023-05-02T01:49:51.158Z,9.0156
2023-05-02T01:50:53.245Z,8.9568
2023-05-02T01:51:55.239Z,9.0497
2023-05-02T01:52:57.260Z,9.0460
2023-05-02T01:53:59.307Z,9.0258
2023-05-02T01:55:01.336Z,9.0209
2023-05-02T01:56:03.381Z,8.9323
2023-05-02T01:57:05.406Z,8.8489
2023-05-02T01:58:07.438Z,8.8356
2023-05-02T01:59:09.441Z,8.8687
2023-05-02T02:00:11.470Z,8.8359
2023-05-02T02:01:13.517Z,8.8491
2023-05-02T02:02:15.531Z,8.8390
2023-05-02T02:03:17.635Z,8.8645
2023-05-02T02:04:19.752Z,8.8266
2023-05-02T02:05:21.602Z,8.8210
2023-05-02T02:06:23.672Z,8.8161
2023-05-02T02:07:25.715Z,8.8483
2023-05-02T02:08:27.672Z,8.8330
2023-05-02T02:09:29.704Z,8.8305
2023-05-02T02:10:31.725Z,8.8630
2023-05-02T02:11:33.716Z,8.9088
2023-05-02T02:12:36.072Z,8.9476
2023-05-02T02:13:38.106Z,8.9358
2023-05-02T02:14:40.134Z,8.8734
2023-05-02T02:15:42.165Z,8.8630
2023-05-02T02:16:44.246Z,8.8332
2023-05-02T02:17:46.428Z,8.8329
2023-05-02T02:18:48.468Z,8.8326
2023-05-02T02:19:50.530Z,8.8076
2023-05-02T02:20:52.552Z,8.8811
2023-05-02T02:21:54.601Z,8.8497
2023-05-02T02:22:56.630Z,8.8762
2023-05-02T02:23:58.661Z,8.8522
2023-05-02T02:25:00.705Z,8.7375
2023-05-02T02:26:02.785Z,8.7207
2023-05-02T02:27:04.843Z,8.7639
2023-05-02T02:28:06.871Z,8.7674
2023-05-02T02:29:08.865Z,8.7551
2023-05-02T02:30:11.238Z,8.7705
2023-05-02T02:31:13.331Z,8.7152
2023-05-02T02:32:15.359Z,8.7481
2023-05-02T02:33:17.376Z,8.6736
2023-05-02T02:34:19.440Z,8.6610
2023-05-02T02:35:21.693Z,8.6857
2023-05-02T02:36:23.708Z,8.6394
2023-05-02T02:37:25.752Z,8.6980
2023-05-02T02:38:27.761Z,8.6526
2023-05-02T02:39:29.790Z,8.6497
2023-05-02T02:40:31.845Z,8.6805
2023-05-02T02:41:33.880Z,8.6643
2023-05-02T02:42:35.926Z,8.6376
2023-05-02T02:43:37.931Z,8.6518
2023-05-02T02:44:40.213Z,8.6339
2023-05-02T02:45:42.242Z,8.6508
2023-05-02T02:46:44.359Z,8.6832
2023-05-02T02:47:46.430Z,8.6954
2023-05-02T02:48:48.396Z,8.7044
2023-05-02T02:49:50.444Z,8.7699
2023-05-02T02:50:52.444Z,8.8422
2023-05-02T02:51:54.451Z,8.7854
2023-05-02T02:52:56.536Z,8.7473
2023-05-02T02:53:58.568Z,8.7474
2023-05-02T02:55:00.628Z,8.7721
2023-05-02T02:56:02.617Z,8.8258
2023-05-02T02:57:04.652Z,8.7988
2023-05-02T02:58:06.664Z,8.7994
2023-05-02T02:59:08.702Z,8.7798
2023-05-02T03:00:10.738Z,8.8092
2023-05-02T03:01:12.766Z,8.8136
2023-05-02T03:02:14.772Z,8.7971
2023-05-02T03:03:16.885Z,8.8037
2023-05-02T03:04:18.940Z,8.8247
2023-05-02T03:05:19.070Z,8.8110
2023-05-02T03:06:21.227Z,8.8002
2023-05-02T03:07:23.268Z,8.8035
2023-05-02T03:08:25.302Z,8.7996
2023-05-02T03:09:27.371Z,8.8228
2023-05-02T03:10:29.367Z,8.8180
2023-05-02T03:11:31.394Z,8.8445
2023-05-02T03:12:33.429Z,8.8769
2023-05-02T03:13:35.421Z,8.8797
2023-05-02T03:14:37.455Z,8.7781
2023-05-02T03:15:40.005Z,8.7295
2023-05-02T03:16:42.115Z,8.7102
2023-05-02T03:17:44.361Z,8.7192
2023-05-02T03:18:46.383Z,8.8538
2023-05-02T03:19:48.518Z,8.8167
2023-05-02T03:20:50.513Z,8.8029
2023-05-02T03:21:52.551Z,8.8332
2023-05-02T03:22:54.607Z,8.8497
2023-05-02T03:23:56.629Z,8.8308
2023-05-02T03:24:58.661Z,8.8264
2023-05-02T03:26:00.654Z,8.7707
2023-05-02T03:27:02.658Z,8.8808
2023-05-02T03:28:04.718Z,8.8423
2023-05-02T03:29:06.734Z,8.8173
2023-05-02T03:30:08.751Z,8.8434
2023-05-02T03:31:10.787Z,8.8326
2023-05-02T03:32:13.136Z,8.8770
2023-05-02T03:33:15.426Z,8.9116
2023-05-02T03:34:17.411Z,8.8893
2023-05-02T03:35:19.672Z,8.9136
2023-05-02T03:36:21.691Z,8.8998
2023-05-02T03:37:23.740Z,8.9364
2023-05-02T03:38:25.776Z,8.9026
2023-05-02T03:39:27.799Z,8.9221
2023-05-02T03:40:29.829Z,8.9490
2023-05-02T03:41:31.913Z,8.9369
2023-05-02T03:42:33.958Z,8.9190
2023-05-02T03:43:36.045Z,9.0039
2023-05-02T03:44:38.025Z,8.9564
2023-05-02T03:45:40.041Z,8.9359
2023-05-02T03:46:42.098Z,8.9512
2023-05-02T03:47:44.434Z,8.9659
2023-05-02T03:48:46.451Z,8.9512
2023-05-02T03:49:48.505Z,8.9389
2023-05-02T03:50:50.548Z,8.9439
2023-05-02T03:51:52.571Z,8.9876
2023-05-02T03:52:54.666Z,8.9936
2023-05-02T03:53:56.707Z,8.9909
2023-05-02T03:54:58.757Z,8.9551
2023-05-02T03:56:00.797Z,8.9053
2023-05-02T03:57:02.841Z,8.9059
2023-05-02T03:58:04.873Z,8.9078
2023-05-02T03:59:06.906Z,8.9075
2023-05-02T04:00:07.062Z,8.8942
2023-05-02T04:01:09.085Z,8.8976
2023-05-02T04:02:11.152Z,8.8800
2023-05-02T04:03:13.263Z,8.8893
2023-05-02T04:04:15.310Z,8.9392
2023-05-02T04:05:17.344Z,9.0140
2023-05-02T04:06:19.441Z,8.9322
2023-05-02T04:07:21.459Z,8.8860
2023-05-02T04:08:23.471Z,8.8709
2023-05-02T04:09:25.645Z,8.8663
2023-05-02T04:10:27.720Z,8.8527
2023-05-02T04:11:29.751Z,8.8134
2023-05-02T04:12:31.835Z,8.8217
2023-05-02T04:13:33.856Z,8.9915
2023-05-02T04:14:35.881Z,9.1161
2023-05-02T04:15:37.931Z,9.1078
2023-05-02T04:16:39.960Z,9.1071
2023-05-02T04:17:42.009Z,9.1005
2023-05-02T04:18:44.035Z,8.9389
2023-05-02T04:19:46.116Z,8.8425
2023-05-02T04:20:48.148Z,8.9496
2023-05-02T04:21:50.212Z,9.0253
2023-05-02T04:22:50.413Z,8.9431
2023-05-02T04:23:52.443Z,8.9691
2023-05-02T04:24:54.505Z,9.0446
2023-05-02T04:25:56.540Z,9.1098
2023-05-02T04:26:58.590Z,9.1546
2023-05-02T04:28:00.606Z,9.1097
2023-05-02T04:29:02.630Z,9.1115
2023-05-02T04:30:04.667Z,9.2334
2023-05-02T04:31:06.740Z,9.3228
2023-05-02T04:32:08.732Z,9.2284
2023-05-02T04:33:10.832Z,9.0633
2023-05-02T04:34:12.822Z,8.9940
2023-05-02T04:35:14.852Z,8.9364
2023-05-02T04:36:16.880Z,8.9116
2023-05-02T04:37:18.948Z,8.9061
2023-05-02T04:38:21.048Z,8.8992
2023-05-02T04:39:23.158Z,8.8693
2023-05-02T04:40:25.171Z,8.8668
2023-05-02T04:41:27.206Z,8.8308
2023-05-02T04:42:29.219Z,8.8387
2023-05-02T04:43:31.249Z,8.8406
2023-05-02T04:44:33.273Z,8.8897
2023-05-02T04:45:35.299Z,8.8582
2023-05-02T04:46:37.384Z,8.8131
2023-05-02T04:47:39.469Z,8.7745
2023-05-02T04:48:41.491Z,8.7936
2023-05-02T04:49:43.518Z,8.7540
2023-05-02T04:50:45.583Z,8.7451
2023-05-02T04:51:47.579Z,8.7988
2023-05-02T04:52:49.614Z,8.8332
2023-05-02T04:53:51.712Z,8.8341
2023-05-02T04:54:53.778Z,9.1610
2023-05-02T04:55:55.884Z,9.1060
2023-05-02T04:56:57.898Z,9.1164
2023-05-02T04:57:59.933Z,9.0991
2023-05-02T04:59:02.004Z,9.0545
2023-05-02T05:00:04.289Z,9.0387
2023-05-02T05:01:06.288Z,9.0413
2023-05-02T05:02:08.481Z,9.0187
2023-05-02T05:03:10.740Z,9.0025
2023-05-02T05:04:12.841Z,8.9942
2023-05-02T05:05:14.980Z,8.9728
2023-05-02T05:06:17.090Z,9.0388
2023-05-02T05:07:19.098Z,9.1571
2023-05-02T05:08:21.131Z,9.1973
2023-05-02T05:09:23.169Z,9.0223
2023-05-02T05:10:25.215Z,8.9091
2023-05-02T05:11:27.257Z,8.8627
2023-05-02T05:12:29.284Z,8.8737
2023-05-02T05:13:31.324Z,8.9947
2023-05-02T05:14:33.354Z,9.0746
2023-05-02T05:15:35.451Z,9.1343
2023-05-02T05:16:37.561Z,9.2647
2023-05-02T05:17:39.737Z,9.3338
2023-05-02T05:18:41.752Z,9.4205
2023-05-02T05:19:43.774Z,9.4868
2023-05-02T05:20:46.119Z,9.4879
2023-05-02T05:21:48.378Z,9.6015
2023-05-02T05:22:50.460Z,9.6897
2023-05-02T05:23:52.480Z,9.6764
2023-05-02T05:24:54.504Z,9.7007
2023-05-02T05:25:56.530Z,9.5807
2023-05-02T05:26:58.560Z,9.4290
2023-05-02T05:28:00.604Z,9.4084
2023-05-02T05:29:02.659Z,9.4232
2023-05-02T05:30:04.707Z,9.4331
2023-05-02T05:31:06.780Z,9.4147
2023-05-02T05:32:08.812Z,9.4711
2023-05-02T05:33:11.266Z,9.3941
2023-05-02T05:34:13.371Z,9.3602
2023-05-02T05:35:15.429Z,9.3523
2023-05-02T05:36:17.484Z,9.4299
2023-05-02T05:37:19.563Z,9.4221
2023-05-02T05:38:21.612Z,9.4325
2023-05-02T05:39:23.664Z,9.4995
2023-05-02T05:40:25.715Z,9.4320
2023-05-02T05:41:27.769Z,9.3801
2023-05-02T05:42:29.834Z,9.3512
2023-05-02T05:43:31.906Z,9.3366
2023-05-02T05:44:33.989Z,9.2765
2023-05-02T05:45:36.084Z,9.3162
2023-05-02T05:46:38.249Z,9.3299
2023-05-02T05:47:40.432Z,9.3900
2023-05-02T05:48:42.597Z,9.3728
2023-05-02T05:49:44.638Z,9.4062
2023-05-02T05:50:46.715Z,9.4059
2023-05-02T05:51:48.795Z,9.3819
2023-05-02T05:52:50.867Z,9.3423
2023-05-02T05:53:52.943Z,9.3234
2023-05-02T05:54:55.029Z,9.3505
2023-05-02T05:55:57.095Z,9.3860
2023-05-02T05:56:59.177Z,9.3340
2023-05-02T05:58:01.253Z,9.3437
2023-05-02T05:59:03.341Z,9.4273
2023-05-02T06:00:05.455Z,9.4866
2023-05-02T06:01:07.770Z,9.4154
2023-05-02T06:02:09.864Z,9.4114
2023-05-02T06:03:12.326Z,9.4667
2023-05-02T06:04:14.553Z,9.6769
2023-05-02T06:05:16.641Z,9.7113
2023-05-02T06:06:18.701Z,9.7364
2023-05-02T06:07:20.762Z,9.7554
2023-05-02T06:08:23.132Z,9.7388
2023-05-02T06:09:25.181Z,9.6835
2023-05-02T06:10:27.234Z,9.6302
2023-05-02T06:11:29.329Z,9.6253
2023-05-02T06:12:31.365Z,9.6945
2023-05-02T06:13:33.418Z,9.7472
2023-05-02T06:14:35.569Z,9.8902
2023-05-02T06:15:37.662Z,9.8718
2023-05-02T06:16:39.773Z,10.0334
2023-05-02T06:17:41.798Z,10.1491
2023-05-02T06:18:43.860Z,10.1484
2023-05-02T06:19:45.914Z,10.0581
2023-05-02T06:20:47.973Z,10.3130
2023-05-02T06:21:50.035Z,10.4037
2023-05-02T06:22:52.119Z,10.1996
2023-05-02T06:23:54.246Z,10.3861
2023-05-02T06:24:56.284Z,10.5256
2023-05-02T06:25:58.356Z,10.5567
2023-05-02T06:27:00.428Z,10.3710
2023-05-02T06:28:02.487Z,10.5411
2023-05-02T06:29:04.553Z,10.2929
2023-05-02T06:30:06.672Z,10.1019
2023-05-02T06:31:08.758Z,10.0542
2023-05-02T06:32:10.848Z,9.8306
2023-05-02T06:33:12.951Z,9.7785
2023-05-02T06:34:15.030Z,10.0004
2023-05-02T06:35:17.110Z,10.3024
2023-05-02T06:36:19.194Z,10.4294
2023-05-02T06:37:21.243Z,10.5029
2023-05-02T06:38:23.320Z,10.3336
2023-05-02T06:39:25.397Z,10.1921
2023-05-02T06:40:27.536Z,10.2783
2023-05-02T06:41:29.608Z,10.3996
2023-05-02T06:42:31.665Z,10.3024
2023-05-02T06:43:33.732Z,10.6941
2023-05-02T06:44:35.794Z,10.8334
2023-05-02T06:45:37.865Z,10.8989
2023-05-02T06:46:39.987Z,11.2417
2023-05-02T06:47:42.114Z,11.3262
2023-05-02T06:48:44.137Z,11.4864
2023-05-02T06:49:46.216Z,11.4844
2023-05-02T06:50:48.327Z,11.7289
2023-05-02T06:51:50.402Z,12.1623
2023-05-02T06:52:52.460Z,11.9679
2023-05-02T06:53:54.552Z,11.9422
2023-05-02T06:54:56.598Z,11.8205
2023-05-02T06:55:58.700Z,11.6055
2023-05-02T06:57:00.761Z,11.8112
2023-05-02T06:58:02.807Z,11.4966
2023-05-02T06:59:04.858Z,11.1322
2023-05-02T07:00:06.980Z,11.5858
2023-05-02T07:01:09.190Z,11.7492
2023-05-02T07:02:11.274Z,11.9459
2023-05-02T07:03:13.383Z,11.4767
2023-05-02T07:04:15.484Z,11.0698
2023-05-02T07:05:17.552Z,11.0678
2023-05-02T07:06:19.648Z,11.3397
2023-05-02T07:07:21.732Z,11.3983
2023-05-02T07:08:23.858Z,11.6249
2023-05-02T07:09:25.982Z,11.5918
2023-05-02T07:10:28.038Z,12.4050
2023-05-02T07:11:30.060Z,12.1245
2023-05-02T07:12:32.170Z,12.4179
2023-05-02T07:13:34.205Z,12.4981
2023-05-02T07:14:36.263Z,12.1433
2023-05-02T07:15:38.331Z,12.0384
2023-05-02T07:16:40.514Z,11.8408
2023-05-02T07:17:42.644Z,10.9871
2023-05-02T07:18:44.701Z,11.3325
2023-05-02T07:19:46.770Z,11.8259
2023-05-02T07:20:48.834Z,12.0963
2023-05-02T07:21:50.894Z,11.7955
2023-05-02T07:22:52.927Z,12.1066
2023-05-02T07:23:54.975Z,11.6686
2023-05-02T07:24:57.178Z,11.5364
2023-05-02T07:25:59.219Z,11.9548
2023-05-02T07:27:01.706Z,12.1146
2023-05-02T07:28:03.803Z,12.4284
2023-05-02T07:29:05.888Z,12.8820
2023-05-02T07:30:08.098Z,13.1263
2023-05-02T07:31:10.183Z,13.0258
2023-05-02T07:32:12.284Z,13.2320
2023-05-02T07:33:14.331Z,11.7283
2023-05-02T07:34:16.503Z,12.0546
2023-05-02T07:35:18.555Z,12.8368
2023-05-02T07:36:20.595Z,13.5289
2023-05-02T07:37:22.705Z,13.0611
2023-05-02T07:38:24.796Z,13.1067
2023-05-02T07:39:26.832Z,12.3654
2023-05-02T07:40:28.900Z,13.1062
2023-05-02T07:41:30.958Z,12.7814
2023-05-02T07:42:33.038Z,12.5580
2023-05-02T07:43:35.100Z,13.5199
2023-05-02T07:44:37.181Z,12.8018
2023-05-02T07:45:39.243Z,12.8484
2023-05-02T07:46:41.410Z,12.5049
2023-05-02T07:47:43.579Z,13.0470
2023-05-02T07:48:45.700Z,12.4198
2023-05-02T07:49:47.759Z,12.1956
2023-05-02T07:50:49.856Z,12.1826
2023-05-02T07:51:51.919Z,12.3183
2023-05-02T07:52:54.016Z,11.7965
2023-05-02T07:53:56.097Z,11.7522
2023-05-02T07:54:58.178Z,11.8788
2023-05-02T07:56:00.261Z,12.1537
2023-05-02T07:57:02.409Z,12.3045
2023-05-02T07:58:04.479Z,12.3519
2023-05-02T07:59:06.522Z,12.0060
2023-05-02T08:00:10.240Z,12.3067
2023-05-02T08:01:16.701Z,12.2353
2023-05-02T08:02:18.843Z,12.8798
2023-05-02T08:03:20.997Z,12.6888
2023-05-02T08:04:23.356Z,12.9246
2023-05-02T08:05:25.450Z,12.9168
2023-05-02T08:06:27.536Z,12.5407
2023-05-02T08:07:29.638Z,12.6510
2023-05-02T08:08:31.733Z,12.4661
2023-05-02T08:09:33.805Z,12.1399
2023-05-02T08:10:35.898Z,12.2167
2023-05-02T08:11:37.989Z,11.8207
2023-05-02T08:12:40.105Z,12.7111
2023-05-02T08:13:42.171Z,12.8024
2023-05-02T08:14:44.252Z,12.6273
2023-05-02T08:15:46.399Z,12.8740
2023-05-02T08:16:48.541Z,12.9361
2023-05-02T08:17:50.906Z,12.5523
2023-05-02T08:18:52.985Z,12.4974
2023-05-02T08:19:55.076Z,13.1213
2023-05-02T08:20:57.137Z,12.9018
2023-05-02T08:21:59.265Z,12.8690
2023-05-02T08:23:01.615Z,13.3682
2023-05-02T08:25:04.262Z,13.4378
2023-05-02T08:26:06.351Z,13.9453
2023-05-02T08:27:08.424Z,13.4522
2023-05-02T08:28:10.522Z,13.6198
2023-05-02T08:29:12.637Z,13.3726
2023-05-02T08:30:14.784Z,13.1423
2023-05-02T08:31:16.938Z,13.2771
2023-05-02T08:32:18.964Z,13.0415
2023-05-02T08:33:21.127Z,13.0930
2023-05-02T08:34:23.158Z,13.6349
2023-05-02T08:35:25.241Z,13.4577
2023-05-02T08:36:27.294Z,13.7315
2023-05-02T08:37:29.384Z,13.5237
2023-05-02T08:38:31.449Z,14.0735
2023-05-02T08:39:33.501Z,13.7678
2023-05-02T08:40:42.174Z,14.4040
2023-05-02T08:41:36.283Z,14.6915
2023-05-02T08:42:38.362Z,14.5725
2023-05-02T08:43:40.440Z,14.3313
2023-05-02T08:44:42.521Z,14.3545
2023-05-02T08:45:44.717Z,14.0615
2023-05-02T08:46:46.852Z,14.4098
2023-05-02T08:47:49.258Z,14.4588
2023-05-02T08:48:51.326Z,13.8528
2023-05-02T08:49:53.479Z,12.9903
2023-05-02T08:50:55.544Z,12.6246
2023-05-02T08:51:57.663Z,13.4158
2023-05-02T08:52:59.736Z,14.4657
2023-05-02T08:54:01.794Z,14.9351
2023-05-02T08:55:04.065Z,14.3056
2023-05-02T08:56:06.452Z,13.8460
2023-05-02T08:57:08.766Z,14.5876
2023-05-02T08:58:10.867Z,15.9350
2023-05-02T08:59:12.972Z,16.4543
2023-05-02T09:00:15.063Z,15.5998
2023-05-02T09:01:17.188Z,14.5587
2023-05-02T09:02:19.261Z,14.8966
2023-05-02T09:03:23.376Z,15.3086
2023-05-02T09:04:22.240Z,15.7645
2023-05-02T09:05:24.339Z,17.3682
2023-05-02T09:06:26.480Z,16.8943
2023-05-02T09:07:28.566Z,15.6114
2023-05-02T09:08:30.632Z,16.3084
2023-05-02T09:09:39.778Z,16.5899
2023-05-02T09:10:34.553Z,16.1293
2023-05-02T09:11:36.391Z,16.2532
2023-05-02T09:12:38.443Z,15.7013
2023-05-02T09:13:40.524Z,15.3893
2023-05-02T09:15:45.938Z,15.2442
2023-05-02T09:16:48.067Z,15.2227
2023-05-02T09:17:50.137Z,15.3793
2023-05-02T09:18:52.180Z,15.5634
2023-05-02T09:19:54.181Z,15.6095
2023-05-02T09:20:56.238Z,14.9069
2023-05-02T09:21:58.314Z,15.1733
2023-05-02T09:23:03.875Z,15.4671
2023-05-02T09:24:05.934Z,16.6904
2023-05-02T09:25:08.099Z,16.2654
2023-05-02T09:26:10.168Z,16.0516
2023-05-02T09:27:12.284Z,16.3172
2023-05-02T09:28:14.309Z,16.4513
2023-05-02T09:29:23.894Z,16.6309
2023-05-02T09:30:25.983Z,16.9821
2023-05-02T09:31:49.792Z,17.1604
2023-05-02T09:32:34.384Z,16.0704
2023-05-02T09:33:36.571Z,16.9746
2023-05-02T09:34:38.620Z,17.3522
2023-05-02T09:35:40.719Z,18.3330
2023-05-02T09:36:42.792Z,18.3319
2023-05-02T09:37:44.854Z,18.3496
2023-05-02T09:38:46.932Z,16.7030
2023-05-02T09:39:48.915Z,15.0137
2023-05-02T09:40:50.959Z,15.1140
2023-05-02T09:41:53.031Z,15.1212
2023-05-02T09:42:54.939Z,16.1153
2023-05-02T09:43:57.023Z,15.2998
2023-05-02T09:44:59.276Z,15.2638
2023-05-02T09:46:01.652Z,15.6268
2023-05-02T09:47:03.695Z,15.3031
2023-05-02T09:48:05.837Z,15.5090
2023-05-02T09:49:07.883Z,16.0750
2023-05-02T09:50:09.939Z,17.1409
2023-05-02T09:51:12.030Z,16.1706
2023-05-02T09:52:14.131Z,16.6497
2023-05-02T09:53:16.275Z,17.9701
2023-05-02T09:54:18.361Z,18.1636
2023-05-02T09:55:20.716Z,17.9846
2023-05-02T09:56:23.966Z,18.6894
2023-05-02T09:57:23.243Z,17.2936
2023-05-02T09:58:25.371Z,16.9251
2023-05-02T09:59:27.451Z,17.5735
2023-05-02T10:00:29.540Z,17.8624
2023-05-02T10:01:31.634Z,18.9864
2023-05-02T10:03:33.825Z,19.0010
2023-05-02T10:04:36.011Z,20.0280
2023-05-02T10:05:38.096Z,19.8340
2023-05-02T10:06:40.303Z,19.8610
2023-05-02T10:07:42.401Z,19.1710
2023-05-02T10:08:44.467Z,17.7730
2023-05-02T10:09:46.605Z,18.3917
2023-05-02T10:10:48.959Z,19.1933
2023-05-02T10:11:51.032Z,19.3120
2023-05-02T10:12:53.132Z,18.7153
2023-05-02T10:14:58.904Z,16.6436
2023-05-02T10:16:01.039Z,16.9026
2023-05-02T10:17:03.164Z,15.6832
2023-05-02T10:19:08.523Z,17.0925
2023-05-02T10:20:10.595Z,16.9538
2023-05-02T10:21:12.639Z,16.3048
2023-05-02T10:22:14.721Z,16.4785
2023-05-02T10:23:16.865Z,16.5167
2023-05-02T10:24:18.930Z,16.3423
2023-05-02T10:25:21.002Z,16.2954
2023-05-02T10:26:23.098Z,15.9558
2023-05-02T10:27:25.155Z,16.2272
2023-05-02T10:28:27.252Z,15.9512
2023-05-02T10:29:29.311Z,15.6383
2023-05-02T10:30:30.275Z,15.2263
2023-05-02T10:31:32.412Z,15.3133
2023-05-02T10:32:34.888Z,15.5684
2023-05-02T10:33:36.957Z,15.5555
2023-05-02T10:34:39.104Z,15.7867
2023-05-02T10:35:39.467Z,15.3512
2023-05-02T10:37:45.048Z,14.3471
2023-05-02T10:38:47.060Z,14.9228
2023-05-02T10:39:49.144Z,15.2388
2023-05-02T10:40:51.171Z,15.2337
2023-05-02T10:41:53.235Z,15.3648
2023-05-02T10:42:55.299Z,15.5924
2023-05-02T10:43:57.132Z,15.2399
2023-05-02T10:44:59.467Z,15.4889
2023-05-02T10:46:01.657Z,14.8304
2023-05-02T10:47:03.790Z,15.3248
2023-05-02T10:48:04.390Z,15.4447
2023-05-02T10:49:06.463Z,15.2989
2023-05-02T10:50:08.589Z,15.3037
2023-05-02T10:51:10.640Z,15.4504
2023-05-02T10:52:12.743Z,15.1880
2023-05-02T10:53:14.806Z,15.4266
2023-05-02T10:54:16.781Z,14.6154
2023-05-02T10:55:18.841Z,14.4737
2023-05-02T10:56:20.892Z,15.0756
2023-05-02T10:57:22.989Z,15.4445
2023-05-02T10:58:25.098Z,15.4932
2023-05-02T10:59:27.146Z,15.1536
2023-05-02T11:00:27.205Z,15.1161
2023-05-02T11:01:29.440Z,15.5261
2023-05-02T11:02:31.751Z,15.0453
2023-05-02T11:03:33.909Z,15.2109
2023-05-02T11:04:35.778Z,15.4577
2023-05-02T11:05:37.840Z,15.6568
2023-05-02T11:06:40.238Z,15.6175
2023-05-02T11:07:42.274Z,15.3799
2023-05-02T11:08:44.350Z,15.8136
2023-05-02T11:09:46.671Z,15.5568
2023-05-02T11:10:48.749Z,15.2282
2023-05-02T11:11:58.325Z,15.0309
2023-05-02T11:12:53.458Z,14.9446
2023-05-02T11:13:55.523Z,15.0397
2023-05-02T11:14:57.640Z,15.3491
2023-05-02T11:16:00.232Z,15.8258
2023-05-02T11:17:02.287Z,15.6507
2023-05-02T11:18:12.124Z,16.2000
2023-05-02T11:19:06.956Z,16.4875
2023-05-02T11:20:09.048Z,16.4724
2023-05-02T11:21:11.115Z,16.2255
2023-05-02T11:22:13.248Z,15.5987
2023-05-02T11:23:15.279Z,16.2452
2023-05-02T11:24:17.382Z,16.7691
2023-05-02T11:25:19.465Z,17.0152
2023-05-02T11:26:21.557Z,16.0037
2023-05-02T11:27:23.655Z,16.8649
2023-05-02T11:28:25.731Z,16.4052
2023-05-02T11:29:27.828Z,16.2074
2023-05-02T11:30:29.972Z,16.0392
2023-05-02T11:31:32.092Z,16.8404
2023-05-02T11:32:34.419Z,16.3634
2023-05-02T11:33:36.509Z,16.8511
2023-05-02T11:34:38.598Z,15.7456
2023-05-02T11:35:44.563Z,15.7752
2023-05-02T11:36:54.309Z,16.0555
2023-05-02T11:37:56.386Z,16.8415
2023-05-02T11:38:58.488Z,16.2182
2023-05-02T11:40:00.588Z,15.8200
2023-05-02T11:41:02.689Z,17.0341
2023-05-02T11:42:04.774Z,18.7975
2023-05-02T11:43:06.810Z,19.1339
2023-05-02T11:44:08.951Z,17.1335
2023-05-02T11:45:11.010Z,16.8027
2023-05-02T11:46:13.108Z,16.8696
2023-05-02T11:47:15.143Z,18.3025
2023-05-02T11:48:17.249Z,19.0576
2023-05-02T11:49:19.326Z,19.3678
2023-05-02T11:50:21.420Z,19.3675
2023-05-02T11:51:23.509Z,20.0825
2023-05-02T11:52:26.242Z,21.6890
2023-05-02T11:53:28.283Z,21.0705
2023-05-02T11:54:30.618Z,21.1914
2023-05-02T11:55:36.608Z,20.4054
2023-05-02T11:56:38.679Z,20.0926
2023-05-02T11:58:40.997Z,18.4750
2023-05-02T12:00:43.600Z,17.4040
2023-05-02T12:01:45.678Z,18.2813
2023-05-02T12:02:47.812Z,19.0990
2023-05-02T12:03:50.007Z,18.8092
2023-05-02T12:04:52.127Z,18.3485
2023-05-02T12:05:54.287Z,19.0618
2023-05-02T12:06:56.445Z,19.2196
2023-05-02T12:07:58.585Z,19.1619
2023-05-02T12:09:00.682Z,18.1669
2023-05-02T12:10:03.069Z,18.2229
2023-05-02T12:11:05.192Z,17.3698
2023-05-02T12:13:10.168Z,17.5754
2023-05-02T12:14:10.288Z,19.5931
2023-05-02T12:15:12.449Z,18.9332
2023-05-02T12:16:14.671Z,19.7308
2023-05-02T12:17:16.838Z,17.8950
2023-05-02T12:18:20.760Z,16.2760
2023-05-02T12:19:20.486Z,16.7026
2023-05-02T12:20:22.609Z,16.9961
2023-05-02T12:21:24.726Z,17.8650
2023-05-02T12:22:26.857Z,16.4424
2023-05-02T12:23:28.956Z,16.2388
2023-05-02T12:24:31.100Z,16.6405
2023-05-02T12:25:33.194Z,16.2397
2023-05-02T12:26:35.313Z,15.7052
2023-05-02T12:27:57.419Z,14.8882
2023-05-02T12:28:52.267Z,14.0203
2023-05-02T12:29:54.378Z,13.6475
2023-05-02T12:30:56.511Z,13.3190
2023-05-02T12:31:58.725Z,13.2944
2023-05-02T12:33:00.898Z,13.4640
2023-05-02T12:34:03.009Z,13.1491
2023-05-02T12:35:05.120Z,12.7543
2023-05-02T12:36:07.200Z,12.5955
2023-05-02T12:37:09.363Z,12.8841
2023-05-02T12:38:11.844Z,12.4874
2023-05-02T12:39:13.725Z,12.6892
2023-05-02T12:40:15.829Z,12.4546
2023-05-02T12:41:17.950Z,12.0996
2023-05-02T12:42:20.057Z,12.0582
2023-05-02T12:43:22.280Z,12.2503
2023-05-02T12:44:24.397Z,12.2520
2023-05-02T12:45:26.731Z,12.0294
2023-05-02T12:46:28.912Z,12.0293
2023-05-02T12:47:31.078Z,12.0432
2023-05-02T12:48:33.148Z,12.1915
2023-05-02T12:49:35.524Z,12.0226
2023-05-02T12:50:37.620Z,11.8417
2023-05-02T12:51:39.719Z,11.7558